Atlantis — PCDT — position and weather

sailwx.info

Track history (hours):
 
Tides and Currents Weather Stations Pressure Air Temp Water Temp Dewpoint Dewpoint Depression Visibility Wind Speed Wind Dir Waves Ship Positions

Atlantis (Netherlands)

Ship's website: http://www.tallship-company.com/artemis/gb_atlantis.htm

Last reported at 2017-Aug-23 19:26 UTC. Time now 2017-Aug-24 06:55 UTC.
Position N 38°53' E 001°13'.

Length 40 m; draft 4.5 m.

Type: Sailing vessel. MMSI: 246253000.

Date/timePositionNaut miles runAvg speedWind from/ knotsBaromVisibWave heightAir tempDewpointWater temp
2017-Aug-23 19:26N 38°53' E 001°13'1 0.4
2017-Aug-23 15:52N 38°54' E 001°13'1 3.6
2017-Aug-23 15:30N 38°56' E 001°13'4 4.3
2017-Aug-23 14:40N 38°59' E 001°12'0 0.1
2017-Aug-23 13:53N 38°59' E 001°12'0 0.7
2017-Aug-23 13:28N 38°60' E 001°12'1 1.5
2017-Aug-23 12:52N 39°00' E 001°13'1 2.9
2017-Aug-23 12:23N 39°01' E 001°14'1 2.5
2017-Aug-23 11:53N 39°02' E 001°16'1 3.7
2017-Aug-23 11:29N 39°03' E 001°17'2 3.2
2017-Aug-23 10:57N 39°03' E 001°19'2 3.0
2017-Aug-23 10:25N 39°04' E 001°21'1 1.9
2017-Aug-23 09:59N 39°05' E 001°22'1 2.4
2017-Aug-23 09:30N 39°05' E 001°23'2 3.9
2017-Aug-23 09:00N 39°06' E 001°25'1 0.4
2017-Aug-23 06:43N 39°05' E 001°27'0 0.0
2017-Aug-23 06:25N 39°05' E 001°27'0 0.0
2017-Aug-23 05:58N 39°05' E 001°27'0 0.0
2017-Aug-23 05:13N 39°05' E 001°27'0 0.0
2017-Aug-23 03:49N 39°05' E 001°27'0 0.0
2017-Aug-23 03:19N 39°05' E 001°27'0 0.0
2017-Aug-23 02:55N 39°05' E 001°27'0 0.0
2017-Aug-23 02:25N 39°05' E 001°27'0 0.0
2017-Aug-23 01:13N 39°05' E 001°27'0 0.0
2017-Aug-23 00:43N 39°05' E 001°27'0 0.0
2017-Aug-23 00:28N 39°05' E 001°27'0 0.0
2017-Aug-22 23:43N 39°05' E 001°27'0 0.0
2017-Aug-22 23:13N 39°05' E 001°27'0 0.0
2017-Aug-22 22:55N 39°05' E 001°27'0 0.0
2017-Aug-22 21:13N 39°05' E 001°27'0 0.0
2017-Aug-22 20:49N 39°05' E 001°27'0 0.0
2017-Aug-22 20:28N 39°05' E 001°27'0 0.0
2017-Aug-22 18:49N 39°05' E 001°27'0 0.1
2017-Aug-22 18:22N 39°05' E 001°27'0 0.0
2017-Aug-22 15:37N 39°05' E 001°27'0 0.0
2017-Aug-22 14:37N 39°05' E 001°27'0 0.0
2017-Aug-22 14:13N 39°05' E 001°27'0 0.0
2017-Aug-22 13:55N 39°05' E 001°27'1 1.3
2017-Aug-22 13:30N 39°06' E 001°27'2 4.8
2017-Aug-22 13:00N 39°07' E 001°29'3 5.6
2017-Aug-22 12:30N 39°09' E 001°33'3 5.8
2017-Aug-22 12:00N 39°10' E 001°36'3 5.7
2017-Aug-22 11:30N 39°12' E 001°39'3 5.5
2017-Aug-22 11:00N 39°14' E 001°42'3 5.7
2017-Aug-22 10:30N 39°15' E 001°45'3 5.7
2017-Aug-22 10:00N 39°17' E 001°48'3 5.6
2017-Aug-22 09:30N 39°18' E 001°51'3 5.6
2017-Aug-22 09:00N 39°19' E 001°54'3 5.4
2017-Aug-22 08:30N 39°21' E 001°57'3 5.4
2017-Aug-22 08:00N 39°22' E 001°60'3 5.3
2017-Aug-22 07:30N 39°24' E 002°03'3 5.2
2017-Aug-22 07:00N 39°25' E 002°06'3 5.4
2017-Aug-22 06:30N 39°27' E 002°09'3 5.5
2017-Aug-22 06:00N 39°28' E 002°12'3 5.6
2017-Aug-22 05:30N 39°29' E 002°15'3 5.6
2017-Aug-22 05:00N 39°31' E 002°18'7 0.6
2017-Aug-21 17:40N 39°37' E 002°21'3 5.3
2017-Aug-21 17:06N 39°39' E 002°24'1 5.4
2017-Aug-21 16:57N 39°39' E 002°25'2 4.7
2017-Aug-21 16:26N 39°41' E 002°28'2 4.4
2017-Aug-21 15:59N 39°42' E 002°30'2 4.1
2017-Aug-21 15:30N 39°43' E 002°32'0 0.2
2017-Aug-21 14:57N 39°43' E 002°32'0 0.1
2017-Aug-21 14:30N 39°43' E 002°32'0 0.8
2017-Aug-21 14:00N 39°44' E 002°32'1 1.4
2017-Aug-21 13:30N 39°44' E 002°33'1 1.3
2017-Aug-21 13:00N 39°44' E 002°33'1 1.3
2017-Aug-21 12:30N 39°45' E 002°34'1 1.5
2017-Aug-21 12:00N 39°45' E 002°35'1 1.6
2017-Aug-21 11:30N 39°46' E 002°36'1 1.8
2017-Aug-21 11:00N 39°46' E 002°37'1 1.7
2017-Aug-21 10:30N 39°47' E 002°38'1 1.8
2017-Aug-21 10:00N 39°47' E 002°38'2 4.0
2017-Aug-21 09:30N 39°48' E 002°41'1 1.3
2017-Aug-21 08:54N 39°48' E 002°42'0 0.0
2017-Aug-21 08:30N 39°48' E 002°42'0 0.0
2017-Aug-21 08:00N 39°48' E 002°42'0 0.0
2017-Aug-21 07:30N 39°48' E 002°42'0 0.0
2017-Aug-21 07:00N 39°48' E 002°42'0 0.0
2017-Aug-21 06:30N 39°48' E 002°42'0 0.0
2017-Aug-21 06:00N 39°48' E 002°42'0 0.0
2017-Aug-21 05:27N 39°48' E 002°42'0 0.0
2017-Aug-21 04:54N 39°48' E 002°42'0 0.0
2017-Aug-21 04:30N 39°48' E 002°42'0 0.0
2017-Aug-21 04:00N 39°48' E 002°42'0 0.0
2017-Aug-21 03:30N 39°48' E 002°42'0 0.0
2017-Aug-21 03:00N 39°48' E 002°42'0 0.0
2017-Aug-21 02:27N 39°48' E 002°42'0 0.0
2017-Aug-21 02:00N 39°48' E 002°42'0 0.0
2017-Aug-21 01:27N 39°48' E 002°42'0 0.0
2017-Aug-21 01:00N 39°48' E 002°42'0 0.0
2017-Aug-21 00:30N 39°48' E 002°42'0 0.0
2017-Aug-21 00:00N 39°48' E 002°42'0 0.0
2017-Aug-20 23:30N 39°48' E 002°42'0 0.0
2017-Aug-20 22:57N 39°48' E 002°42'0 0.0
2017-Aug-20 22:30N 39°48' E 002°42'0 0.0
2017-Aug-20 22:00N 39°48' E 002°42'0 0.0
2017-Aug-20 21:27N 39°48' E 002°42'0 0.0
2017-Aug-20 21:00N 39°48' E 002°42'0 0.0
2017-Aug-20 20:30N 39°48' E 002°42'0 0.0
2017-Aug-20 20:00N 39°48' E 002°42'0 0.0
2017-Aug-20 19:30N 39°48' E 002°42'0 0.0
2017-Aug-20 18:57N 39°48' E 002°42'0 0.0
2017-Aug-20 18:30N 39°48' E 002°42'0 0.0
2017-Aug-20 17:51N 39°48' E 002°42'0 0.0
2017-Aug-20 17:30N 39°48' E 002°42'0 0.0
2017-Aug-20 17:00N 39°48' E 002°42'0 0.0
2017-Aug-20 16:24N 39°48' E 002°42'0 0.0
2017-Aug-20 16:00N 39°48' E 002°42'0 0.0
2017-Aug-20 15:30N 39°48' E 002°42'0 0.0
2017-Aug-20 15:00N 39°48' E 002°42'0 0.0
2017-Aug-20 14:30N 39°48' E 002°42'0 0.0
2017-Aug-20 14:00N 39°48' E 002°42'0 0.0
2017-Aug-20 13:30N 39°48' E 002°42'0 0.0
2017-Aug-20 13:00N 39°48' E 002°42'0 0.0
2017-Aug-20 12:27N 39°48' E 002°42'0 0.0
2017-Aug-20 12:00N 39°48' E 002°42'0 0.0
2017-Aug-20 11:27N 39°48' E 002°42'0 0.0
2017-Aug-20 10:57N 39°48' E 002°42'0 0.0
2017-Aug-20 10:18N 39°48' E 002°42'0 0.0
2017-Aug-20 10:00N 39°48' E 002°42'0 0.0
2017-Aug-20 09:30N 39°48' E 002°42'0 0.0
2017-Aug-20 08:57N 39°48' E 002°42'0 0.0
2017-Aug-20 08:30N 39°48' E 002°42'0 0.0
2017-Aug-20 08:00N 39°48' E 002°42'0 0.0
2017-Aug-20 07:30N 39°48' E 002°42'0 0.0
2017-Aug-20 07:00N 39°48' E 002°42'0 0.0
2017-Aug-20 06:30N 39°48' E 002°42'0 0.0
2017-Aug-20 05:51N 39°48' E 002°42'0 0.0
2017-Aug-20 05:30N 39°48' E 002°42'0 0.0
2017-Aug-20 05:00N 39°48' E 002°42'0 0.0
2017-Aug-20 04:30N 39°48' E 002°42'0 0.0
2017-Aug-20 03:54N 39°48' E 002°42'0 0.0
2017-Aug-20 03:27N 39°48' E 002°42'0 0.0
2017-Aug-20 03:00N 39°48' E 002°42'0 0.0
2017-Aug-20 02:30N 39°48' E 002°42'0 0.0
2017-Aug-20 02:00N 39°48' E 002°42'0 0.0
2017-Aug-20 01:30N 39°48' E 002°42'0 0.0
2017-Aug-20 01:00N 39°48' E 002°42'0 0.0
2017-Aug-20 00:30N 39°48' E 002°42'0 0.0
2017-Aug-20 00:00N 39°48' E 002°42'0 0.0
2017-Aug-19 23:30N 39°48' E 002°42'0 0.0
2017-Aug-19 22:57N 39°48' E 002°42'0 0.0
2017-Aug-19 22:30N 39°48' E 002°42'0 0.0
2017-Aug-19 22:00N 39°48' E 002°42'0 0.0
2017-Aug-19 21:30N 39°48' E 002°42'0 0.0
2017-Aug-19 20:57N 39°48' E 002°42'0 0.0
2017-Aug-19 20:27N 39°48' E 002°42'0 0.0
2017-Aug-19 20:00N 39°48' E 002°42'1 2.2
2017-Aug-19 19:30N 39°48' E 002°40'3 5.7
2017-Aug-19 19:00N 39°47' E 002°37'3 6.8
2017-Aug-19 18:30N 39°45' E 002°33'3 6.7
2017-Aug-19 17:59N 39°43' E 002°30'3 6.7
2017-Aug-19 17:30N 39°41' E 002°26'3 6.6
2017-Aug-19 17:00N 39°39' E 002°23'3 6.4
2017-Aug-19 16:30N 39°37' E 002°20'5 6.5
2017-Aug-19 15:45N 39°33' E 002°16'2 6.9
2017-Aug-19 15:30N 39°32' E 002°14'4 7.3
2017-Aug-19 15:00N 39°29' E 002°11'8 7.5
2017-Aug-19 14:00N 39°23' E 002°06'4 7.4
2017-Aug-19 13:29N 39°20' E 002°03'4 7.3
2017-Aug-19 13:00N 39°17' E 001°60'3 6.9
2017-Aug-19 12:30N 39°15' E 001°57'3 6.4
2017-Aug-19 12:00N 39°12' E 001°54'3 6.7
2017-Aug-19 11:30N 39°10' E 001°51'4 6.5
2017-Aug-19 10:55N 39°07' E 001°47'2 5.4
2017-Aug-19 10:30N 39°06' E 001°45'2 4.6
2017-Aug-19 09:59N 39°04' E 001°43'2 4.6
2017-Aug-19 09:28N 39°02' E 001°41'3 4.8
2017-Aug-19 08:55N 39°00' E 001°39'3 6.0
2017-Aug-19 08:27N 38°58' E 001°36'4 6.3
2017-Aug-19 07:51N 38°55' E 001°33'2 6.2
2017-Aug-19 07:29N 38°53' E 001°31'3 6.3
2017-Aug-19 07:00N 38°51' E 001°29'3 6.6
2017-Aug-19 06:29N 38°49' E 001°26'23 6.7
2017-Aug-19 03:05N 38°34' E 001°03'11 7.4
2017-Aug-19 01:39N 38°28' E 000°52'1 7.6
2017-Aug-19 01:30N 38°27' E 000°51'4 7.7
2017-Aug-19 00:57N 38°24' E 000°47'4 7.9
2017-Aug-19 00:30N 38°22' E 000°43'4 7.7
2017-Aug-18 23:56N 38°19' E 000°39'3 7.7
2017-Aug-18 23:30N 38°17' E 000°36'4 8.1
2017-Aug-18 23:00N 38°15' E 000°32'4 8.0
2017-Aug-18 22:28N 38°12' E 000°28'15 7.5
2017-Aug-18 20:26N 38°02' E 000°13'27 7.3
2017-Aug-18 16:44N 37°44' W 000°13'4 7.7
2017-Aug-18 16:11N 37°42' W 000°17'2 8.0
2017-Aug-18 15:59N 37°41' W 000°19'4 7.8
2017-Aug-18 15:27N 37°38' W 000°23'6 7.5
2017-Aug-18 14:38N 37°34' W 000°29'3 7.3
2017-Aug-18 14:17N 37°32' W 000°31'10 7.1
2017-Aug-18 12:56N 37°26' W 000°41'4 7.0
2017-Aug-18 12:25N 37°24' W 000°44'8 7.1
2017-Aug-18 11:15N 37°19' W 000°53'224 6.8
2017-Aug-17 02:34N 36°01' W 005°14'0 6.3
2017-Aug-17 02:30N 36°01' W 005°14'3 6.5
2017-Aug-17 02:00N 36°00' W 005°18'4 6.7
2017-Aug-17 01:28N 35°59' W 005°22'3 7.1
2017-Aug-17 01:00N 35°58' W 005°26'133 7.2
2017-Aug-16 06:40N 36°40' W 008°02'1 7.4
2017-Aug-16 06:30N 36°41' W 008°04'4 7.4
2017-Aug-16 06:00N 36°42' W 008°08'4 7.5
2017-Aug-16 05:30N 36°43' W 008°13'5 7.7
2017-Aug-16 04:50N 36°45' W 008°19'4 7.7
2017-Aug-16 04:16N 36°46' W 008°24'2 7.5
2017-Aug-16 03:59N 36°47' W 008°26'4 7.6
2017-Aug-16 03:30N 36°48' W 008°31'4 7.4
2017-Aug-16 03:00N 36°49' W 008°35'4 7.5
2017-Aug-16 02:30N 36°50' W 008°40'4 7.9
2017-Aug-16 02:00N 36°51' W 008°45'4 7.6
2017-Aug-16 01:30N 36°52' W 008°49'4 8.1
2017-Aug-16 01:00N 36°53' W 008°54'4 7.9
2017-Aug-16 00:30N 36°55' W 008°58'4 7.1
2017-Aug-16 00:00N 36°57' W 009°02'3 6.3
2017-Aug-15 23:30N 36°59' W 009°05'16 7.5
2017-Aug-15 21:24N 37°14' W 009°12'4 8.4
2017-Aug-15 20:57N 37°17' W 009°14'4 8.4
2017-Aug-15 20:30N 37°21' W 009°15'4 8.5
2017-Aug-15 20:00N 37°25' W 009°17'4 8.4
2017-Aug-15 19:30N 37°29' W 009°19'4 8.4
2017-Aug-15 19:00N 37°33' W 009°20'5 8.7
2017-Aug-15 18:28N 37°38' W 009°21'4 9.0
2017-Aug-15 18:00N 37°42' W 009°22'4 8.9
2017-Aug-15 17:30N 37°46' W 009°23'5 9.1
2017-Aug-15 17:00N 37°50' W 009°24'5 9.8
2017-Aug-15 16:30N 37°55' W 009°25'5 9.8
2017-Aug-15 16:00N 38°00' W 009°26'5 9.9
2017-Aug-15 15:30N 38°05' W 009°28'5 9.1
2017-Aug-15 15:00N 38°09' W 009°29'4 8.8
2017-Aug-15 14:30N 38°13' W 009°31'4 8.6
2017-Aug-15 14:00N 38°18' W 009°33'4 8.7
2017-Aug-15 13:30N 38°22' W 009°35'4 8.5
2017-Aug-15 13:00N 38°26' W 009°37'4 8.0
2017-Aug-15 12:30N 38°29' W 009°38'4 8.1
2017-Aug-15 12:00N 38°33' W 009°40'4 8.2
2017-Aug-15 11:30N 38°37' W 009°42'4 8.0
2017-Aug-15 11:00N 38°41' W 009°43'4 7.9
2017-Aug-15 10:30N 38°45' W 009°43'4 8.1
2017-Aug-15 10:00N 38°49' W 009°43'4 7.9
2017-Aug-15 09:30N 38°53' W 009°43'4 7.7
2017-Aug-15 09:00N 38°57' W 009°44'4 7.5
2017-Aug-15 08:30N 39°00' W 009°44'4 7.3
2017-Aug-15 08:00N 39°04' W 009°44'4 7.5
2017-Aug-15 07:30N 39°08' W 009°45'4 7.6
2017-Aug-15 07:00N 39°12' W 009°45'4 7.5
2017-Aug-15 06:30N 39°15' W 009°45'4 7.3
2017-Aug-15 06:00N 39°19' W 009°45'  
Track history (hours):
 
Tides and Currents Weather Stations Pressure Air Temp Water Temp Dewpoint Dewpoint Depression Visibility Wind Speed Wind Dir Waves Ship Positions

Atlantis (Netherlands)

Ship's website: http://www.tallship-company.com/artemis/gb_atlantis.htm

Last reported at 2017-Aug-23 19:26 UTC. Time now 2017-Aug-24 06:55 UTC.
Position N 38°53' E 001°13'.

Length 40 m; draft 4.5 m.

Type: Sailing vessel. MMSI: 246253000.

Date/timePositionNaut miles runAvg speedWind from/ knotsBaromVisibWave heightAir tempDewpointWater temp
2017-Aug-23 19:26N 38°53' E 001°13'1 0.4
2017-Aug-23 15:52N 38°54' E 001°13'1 3.6
2017-Aug-23 15:30N 38°56' E 001°13'4 4.3
2017-Aug-23 14:40N 38°59' E 001°12'0 0.1
2017-Aug-23 13:53N 38°59' E 001°12'0 0.7
2017-Aug-23 13:28N 38°60' E 001°12'1 1.5
2017-Aug-23 12:52N 39°00' E 001°13'1 2.9
2017-Aug-23 12:23N 39°01' E 001°14'1 2.5
2017-Aug-23 11:53N 39°02' E 001°16'1 3.7
2017-Aug-23 11:29N 39°03' E 001°17'2 3.2
2017-Aug-23 10:57N 39°03' E 001°19'2 3.0
2017-Aug-23 10:25N 39°04' E 001°21'1 1.9
2017-Aug-23 09:59N 39°05' E 001°22'1 2.4
2017-Aug-23 09:30N 39°05' E 001°23'2 3.9
2017-Aug-23 09:00N 39°06' E 001°25'1 0.4
2017-Aug-23 06:43N 39°05' E 001°27'0 0.0
2017-Aug-23 06:25N 39°05' E 001°27'0 0.0
2017-Aug-23 05:58N 39°05' E 001°27'0 0.0
2017-Aug-23 05:13N 39°05' E 001°27'0 0.0
2017-Aug-23 03:49N 39°05' E 001°27'0 0.0
2017-Aug-23 03:19N 39°05' E 001°27'0 0.0
2017-Aug-23 02:55N 39°05' E 001°27'0 0.0
2017-Aug-23 02:25N 39°05' E 001°27'0 0.0
2017-Aug-23 01:13N 39°05' E 001°27'0 0.0
2017-Aug-23 00:43N 39°05' E 001°27'0 0.0
2017-Aug-23 00:28N 39°05' E 001°27'0 0.0
2017-Aug-22 23:43N 39°05' E 001°27'0 0.0
2017-Aug-22 23:13N 39°05' E 001°27'0 0.0
2017-Aug-22 22:55N 39°05' E 001°27'0 0.0
2017-Aug-22 21:13N 39°05' E 001°27'0 0.0
2017-Aug-22 20:49N 39°05' E 001°27'0 0.0
2017-Aug-22 20:28N 39°05' E 001°27'0 0.0
2017-Aug-22 18:49N 39°05' E 001°27'0 0.1
2017-Aug-22 18:22N 39°05' E 001°27'0 0.0
2017-Aug-22 15:37N 39°05' E 001°27'0 0.0
2017-Aug-22 14:37N 39°05' E 001°27'0 0.0
2017-Aug-22 14:13N 39°05' E 001°27'0 0.0
2017-Aug-22 13:55N 39°05' E 001°27'1 1.3
2017-Aug-22 13:30N 39°06' E 001°27'2 4.8
2017-Aug-22 13:00N 39°07' E 001°29'3 5.6
2017-Aug-22 12:30N 39°09' E 001°33'3 5.8
2017-Aug-22 12:00N 39°10' E 001°36'3 5.7
2017-Aug-22 11:30N 39°12' E 001°39'3 5.5
2017-Aug-22 11:00N 39°14' E 001°42'3 5.7
2017-Aug-22 10:30N 39°15' E 001°45'3 5.7
2017-Aug-22 10:00N 39°17' E 001°48'3 5.6
2017-Aug-22 09:30N 39°18' E 001°51'3 5.6
2017-Aug-22 09:00N 39°19' E 001°54'3 5.4
2017-Aug-22 08:30N 39°21' E 001°57'3 5.4
2017-Aug-22 08:00N 39°22' E 001°60'3 5.3
2017-Aug-22 07:30N 39°24' E 002°03'3 5.2
2017-Aug-22 07:00N 39°25' E 002°06'3 5.4
2017-Aug-22 06:30N 39°27' E 002°09'3 5.5
2017-Aug-22 06:00N 39°28' E 002°12'3 5.6
2017-Aug-22 05:30N 39°29' E 002°15'3 5.6
2017-Aug-22 05:00N 39°31' E 002°18'7 0.6
2017-Aug-21 17:40N 39°37' E 002°21'3 5.3
2017-Aug-21 17:06N 39°39' E 002°24'1 5.4
2017-Aug-21 16:57N 39°39' E 002°25'2 4.7
2017-Aug-21 16:26N 39°41' E 002°28'2 4.4
2017-Aug-21 15:59N 39°42' E 002°30'2 4.1
2017-Aug-21 15:30N 39°43' E 002°32'0 0.2
2017-Aug-21 14:57N 39°43' E 002°32'0 0.1
2017-Aug-21 14:30N 39°43' E 002°32'0 0.8
2017-Aug-21 14:00N 39°44' E 002°32'1 1.4
2017-Aug-21 13:30N 39°44' E 002°33'1 1.3
2017-Aug-21 13:00N 39°44' E 002°33'1 1.3
2017-Aug-21 12:30N 39°45' E 002°34'1 1.5
2017-Aug-21 12:00N 39°45' E 002°35'1 1.6
2017-Aug-21 11:30N 39°46' E 002°36'1 1.8
2017-Aug-21 11:00N 39°46' E 002°37'1 1.7
2017-Aug-21 10:30N 39°47' E 002°38'1 1.8
2017-Aug-21 10:00N 39°47' E 002°38'2 4.0
2017-Aug-21 09:30N 39°48' E 002°41'1 1.3
2017-Aug-21 08:54N 39°48' E 002°42'0 0.0
2017-Aug-21 08:30N 39°48' E 002°42'0 0.0
2017-Aug-21 08:00N 39°48' E 002°42'0 0.0
2017-Aug-21 07:30N 39°48' E 002°42'0 0.0
2017-Aug-21 07:00N 39°48' E 002°42'0 0.0
2017-Aug-21 06:30N 39°48' E 002°42'0 0.0
2017-Aug-21 06:00N 39°48' E 002°42'0 0.0
2017-Aug-21 05:27N 39°48' E 002°42'0 0.0
2017-Aug-21 04:54N 39°48' E 002°42'0 0.0
2017-Aug-21 04:30N 39°48' E 002°42'0 0.0
2017-Aug-21 04:00N 39°48' E 002°42'0 0.0
2017-Aug-21 03:30N 39°48' E 002°42'0 0.0
2017-Aug-21 03:00N 39°48' E 002°42'0 0.0
2017-Aug-21 02:27N 39°48' E 002°42'0 0.0
2017-Aug-21 02:00N 39°48' E 002°42'0 0.0
2017-Aug-21 01:27N 39°48' E 002°42'0 0.0
2017-Aug-21 01:00N 39°48' E 002°42'0 0.0
2017-Aug-21 00:30N 39°48' E 002°42'0 0.0
2017-Aug-21 00:00N 39°48' E 002°42'0 0.0
2017-Aug-20 23:30N 39°48' E 002°42'0 0.0
2017-Aug-20 22:57N 39°48' E 002°42'0 0.0
2017-Aug-20 22:30N 39°48' E 002°42'0 0.0
2017-Aug-20 22:00N 39°48' E 002°42'0 0.0
2017-Aug-20 21:27N 39°48' E 002°42'0 0.0
2017-Aug-20 21:00N 39°48' E 002°42'0 0.0
2017-Aug-20 20:30N 39°48' E 002°42'0 0.0
2017-Aug-20 20:00N 39°48' E 002°42'0 0.0
2017-Aug-20 19:30N 39°48' E 002°42'0 0.0
2017-Aug-20 18:57N 39°48' E 002°42'0 0.0
2017-Aug-20 18:30N 39°48' E 002°42'0 0.0
2017-Aug-20 17:51N 39°48' E 002°42'0 0.0
2017-Aug-20 17:30N 39°48' E 002°42'0 0.0
2017-Aug-20 17:00N 39°48' E 002°42'0 0.0
2017-Aug-20 16:24N 39°48' E 002°42'0 0.0
2017-Aug-20 16:00N 39°48' E 002°42'0 0.0
2017-Aug-20 15:30N 39°48' E 002°42'0 0.0
2017-Aug-20 15:00N 39°48' E 002°42'0 0.0
2017-Aug-20 14:30N 39°48' E 002°42'0 0.0
2017-Aug-20 14:00N 39°48' E 002°42'0 0.0
2017-Aug-20 13:30N 39°48' E 002°42'0 0.0
2017-Aug-20 13:00N 39°48' E 002°42'0 0.0
2017-Aug-20 12:27N 39°48' E 002°42'0 0.0
2017-Aug-20 12:00N 39°48' E 002°42'0 0.0
2017-Aug-20 11:27N 39°48' E 002°42'0 0.0
2017-Aug-20 10:57N 39°48' E 002°42'0 0.0
2017-Aug-20 10:18N 39°48' E 002°42'0 0.0
2017-Aug-20 10:00N 39°48' E 002°42'0 0.0
2017-Aug-20 09:30N 39°48' E 002°42'0 0.0
2017-Aug-20 08:57N 39°48' E 002°42'0 0.0
2017-Aug-20 08:30N 39°48' E 002°42'0 0.0
2017-Aug-20 08:00N 39°48' E 002°42'0 0.0
2017-Aug-20 07:30N 39°48' E 002°42'0 0.0
2017-Aug-20 07:00N 39°48' E 002°42'0 0.0
2017-Aug-20 06:30N 39°48' E 002°42'0 0.0
2017-Aug-20 05:51N 39°48' E 002°42'0 0.0
2017-Aug-20 05:30N 39°48' E 002°42'0 0.0
2017-Aug-20 05:00N 39°48' E 002°42'0 0.0
2017-Aug-20 04:30N 39°48' E 002°42'0 0.0
2017-Aug-20 03:54N 39°48' E 002°42'0 0.0
2017-Aug-20 03:27N 39°48' E 002°42'0 0.0
2017-Aug-20 03:00N 39°48' E 002°42'0 0.0
2017-Aug-20 02:30N 39°48' E 002°42'0 0.0
2017-Aug-20 02:00N 39°48' E 002°42'0 0.0
2017-Aug-20 01:30N 39°48' E 002°42'0 0.0
2017-Aug-20 01:00N 39°48' E 002°42'0 0.0
2017-Aug-20 00:30N 39°48' E 002°42'0 0.0
2017-Aug-20 00:00N 39°48' E 002°42'0 0.0
2017-Aug-19 23:30N 39°48' E 002°42'0 0.0
2017-Aug-19 22:57N 39°48' E 002°42'0 0.0
2017-Aug-19 22:30N 39°48' E 002°42'0 0.0
2017-Aug-19 22:00N 39°48' E 002°42'0 0.0
2017-Aug-19 21:30N 39°48' E 002°42'0 0.0
2017-Aug-19 20:57N 39°48' E 002°42'0 0.0
2017-Aug-19 20:27N 39°48' E 002°42'0 0.0
2017-Aug-19 20:00N 39°48' E 002°42'1 2.2
2017-Aug-19 19:30N 39°48' E 002°40'3 5.7
2017-Aug-19 19:00N 39°47' E 002°37'3 6.8
2017-Aug-19 18:30N 39°45' E 002°33'3 6.7
2017-Aug-19 17:59N 39°43' E 002°30'3 6.7
2017-Aug-19 17:30N 39°41' E 002°26'3 6.6
2017-Aug-19 17:00N 39°39' E 002°23'3 6.4
2017-Aug-19 16:30N 39°37' E 002°20'5 6.5
2017-Aug-19 15:45N 39°33' E 002°16'2 6.9
2017-Aug-19 15:30N 39°32' E 002°14'4 7.3
2017-Aug-19 15:00N 39°29' E 002°11'8 7.5
2017-Aug-19 14:00N 39°23' E 002°06'4 7.4
2017-Aug-19 13:29N 39°20' E 002°03'4 7.3
2017-Aug-19 13:00N 39°17' E 001°60'3 6.9
2017-Aug-19 12:30N 39°15' E 001°57'3 6.4
2017-Aug-19 12:00N 39°12' E 001°54'3 6.7
2017-Aug-19 11:30N 39°10' E 001°51'4 6.5
2017-Aug-19 10:55N 39°07' E 001°47'2 5.4
2017-Aug-19 10:30N 39°06' E 001°45'2 4.6
2017-Aug-19 09:59N 39°04' E 001°43'2 4.6
2017-Aug-19 09:28N 39°02' E 001°41'3 4.8
2017-Aug-19 08:55N 39°00' E 001°39'3 6.0
2017-Aug-19 08:27N 38°58' E 001°36'4 6.3
2017-Aug-19 07:51N 38°55' E 001°33'2 6.2
2017-Aug-19 07:29N 38°53' E 001°31'3 6.3
2017-Aug-19 07:00N 38°51' E 001°29'3 6.6
2017-Aug-19 06:29N 38°49' E 001°26'23 6.7
2017-Aug-19 03:05N 38°34' E 001°03'11 7.4
2017-Aug-19 01:39N 38°28' E 000°52'1 7.6
2017-Aug-19 01:30N 38°27' E 000°51'4 7.7
2017-Aug-19 00:57N 38°24' E 000°47'4 7.9
2017-Aug-19 00:30N 38°22' E 000°43'4 7.7
2017-Aug-18 23:56N 38°19' E 000°39'3 7.7
2017-Aug-18 23:30N 38°17' E 000°36'4 8.1
2017-Aug-18 23:00N 38°15' E 000°32'4 8.0
2017-Aug-18 22:28N 38°12' E 000°28'15 7.5
2017-Aug-18 20:26N 38°02' E 000°13'27 7.3
2017-Aug-18 16:44N 37°44' W 000°13'4 7.7
2017-Aug-18 16:11N 37°42' W 000°17'2 8.0
2017-Aug-18 15:59N 37°41' W 000°19'4 7.8
2017-Aug-18 15:27N 37°38' W 000°23'6 7.5
2017-Aug-18 14:38N 37°34' W 000°29'3 7.3
2017-Aug-18 14:17N 37°32' W 000°31'10 7.1
2017-Aug-18 12:56N 37°26' W 000°41'4 7.0
2017-Aug-18 12:25N 37°24' W 000°44'8 7.1
2017-Aug-18 11:15N 37°19' W 000°53'224 6.8
2017-Aug-17 02:34N 36°01' W 005°14'0 6.3
2017-Aug-17 02:30N 36°01' W 005°14'3 6.5
2017-Aug-17 02:00N 36°00' W 005°18'4 6.7
2017-Aug-17 01:28N 35°59' W 005°22'3 7.1
2017-Aug-17 01:00N 35°58' W 005°26'133 7.2
2017-Aug-16 06:40N 36°40' W 008°02'1 7.4
2017-Aug-16 06:30N 36°41' W 008°04'4 7.4
2017-Aug-16 06:00N 36°42' W 008°08'4 7.5
2017-Aug-16 05:30N 36°43' W 008°13'5 7.7
2017-Aug-16 04:50N 36°45' W 008°19'4 7.7
2017-Aug-16 04:16N 36°46' W 008°24'2 7.5
2017-Aug-16 03:59N 36°47' W 008°26'4 7.6
2017-Aug-16 03:30N 36°48' W 008°31'4 7.4
2017-Aug-16 03:00N 36°49' W 008°35'4 7.5
2017-Aug-16 02:30N 36°50' W 008°40'4 7.9
2017-Aug-16 02:00N 36°51' W 008°45'4 7.6
2017-Aug-16 01:30N 36°52' W 008°49'4 8.1
2017-Aug-16 01:00N 36°53' W 008°54'4 7.9
2017-Aug-16 00:30N 36°55' W 008°58'4 7.1
2017-Aug-16 00:00N 36°57' W 009°02'3 6.3
2017-Aug-15 23:30N 36°59' W 009°05'16 7.5
2017-Aug-15 21:24N 37°14' W 009°12'4 8.4
2017-Aug-15 20:57N 37°17' W 009°14'4 8.4
2017-Aug-15 20:30N 37°21' W 009°15'4 8.5
2017-Aug-15 20:00N 37°25' W 009°17'4 8.4
2017-Aug-15 19:30N 37°29' W 009°19'4 8.4
2017-Aug-15 19:00N 37°33' W 009°20'5 8.7
2017-Aug-15 18:28N 37°38' W 009°21'4 9.0
2017-Aug-15 18:00N 37°42' W 009°22'4 8.9
2017-Aug-15 17:30N 37°46' W 009°23'5 9.1
2017-Aug-15 17:00N 37°50' W 009°24'5 9.8
2017-Aug-15 16:30N 37°55' W 009°25'5 9.8
2017-Aug-15 16:00N 38°00' W 009°26'5 9.9
2017-Aug-15 15:30N 38°05' W 009°28'5 9.1
2017-Aug-15 15:00N 38°09' W 009°29'4 8.8
2017-Aug-15 14:30N 38°13' W 009°31'4 8.6
2017-Aug-15 14:00N 38°18' W 009°33'4 8.7
2017-Aug-15 13:30N 38°22' W 009°35'4 8.5
2017-Aug-15 13:00N 38°26' W 009°37'4 8.0
2017-Aug-15 12:30N 38°29' W 009°38'4 8.1
2017-Aug-15 12:00N 38°33' W 009°40'4 8.2
2017-Aug-15 11:30N 38°37' W 009°42'4 8.0
2017-Aug-15 11:00N 38°41' W 009°43'4 7.9
2017-Aug-15 10:30N 38°45' W 009°43'4 8.1
2017-Aug-15 10:00N 38°49' W 009°43'4 7.9
2017-Aug-15 09:30N 38°53' W 009°43'4 7.7
2017-Aug-15 09:00N 38°57' W 009°44'4 7.5
2017-Aug-15 08:30N 39°00' W 009°44'4 7.3
2017-Aug-15 08:00N 39°04' W 009°44'4 7.5
2017-Aug-15 07:30N 39°08' W 009°45'4 7.6
2017-Aug-15 07:00N 39°12' W 009°45'4 7.5
2017-Aug-15 06:30N 39°15' W 009°45'4 7.3
2017-Aug-15 06:00N 39°19' W 009°45'  

Dump ship's entire track history